Time;durP1;ratioP1;P1;durP2;ratioP2;P2;SDS_P1;SDS_P2;PMS_P1;PMS_P2;Temp;Humidity;BMP_temperature;BMP_pressure;BME280_temperature;BME280_humidity;BME280_pressure;Samples;Min_cycle;Max_cycle;Signal;HPM_P1;HPM_P2
2022/05/06 00:00:24;;;;;;;8.40;5.87;;;;;;;9.58;73.75;101157.13;5100315;28;20438;-60
2022/05/06 00:02:51;;;;;;;6.87;5.30;;;;;;;9.50;74.09;101160.38;5099370;28;20569;-60
2022/05/06 00:05:18;;;;;;;10.47;6.17;;;;;;;9.54;73.87;101155.66;5098734;27;20451;-60
2022/05/06 00:07:45;;;;;;;9.20;5.60;;;;;;;9.46;74.02;101164.25;5095980;28;20472;-60
2022/05/06 00:10:14;;;;;;;6.17;5.33;;;;;;;9.48;73.90;101164.97;5082056;28;20455;-61
2022/05/06 00:12:42;;;;;;;7.63;4.93;;;;;;;9.57;73.48;101158.97;5100923;28;20479;-61
2022/05/06 00:15:09;;;;;;;8.13;5.07;;;;;;;9.48;74.18;101156.09;5099526;28;20482;-62
2022/05/06 00:17:37;;;;;;;8.10;5.30;;;;;;;9.48;74.50;101156.97;5094889;28;20481;-61
2022/05/06 00:20:06;;;;;;;6.37;5.30;;;;;;;9.36;74.28;101164.03;5081585;28;20455;-61
2022/05/06 00:22:32;;;;;;;9.00;5.77;;;;;;;9.14;74.97;101163.88;5094153;28;20459;-61
2022/05/06 00:24:59;;;;;;;6.13;5.50;;;;;;;9.12;75.30;101157.78;5086168;28;20511;-61
2022/05/06 00:27:25;;;;;;;7.30;5.10;;;;;;;9.10;75.30;101154.38;5098688;28;20506;-67
2022/05/06 00:29:52;;;;;;;6.90;5.27;;;;;;;9.10;75.43;101157.91;5100802;28;20527;-67
2022/05/06 00:32:18;;;;;;;5.80;5.20;;;;;;;9.08;75.39;101153.63;5098937;28;20478;-67
2022/05/06 00:34:46;;;;;;;7.80;5.53;;;;;;;9.12;75.66;101163.97;5089810;28;20524;-67
2022/05/06 00:37:13;;;;;;;6.23;5.07;;;;;;;9.00;75.49;101163.03;5098056;28;20490;-68
2022/05/06 00:39:40;;;;;;;7.63;5.80;;;;;;;8.97;75.47;101157.06;5101030;28;20518;-69
2022/05/06 00:42:08;;;;;;;5.50;4.57;;;;;;;8.92;75.69;101156.53;5099948;28;20489;-66
2022/05/06 00:44:34;;;;;;;6.83;5.07;;;;;;;8.76;75.96;101160.25;5100640;28;20462;-68
2022/05/06 00:47:02;;;;;;;6.87;5.73;;;;;;;8.88;75.90;101163.88;5089134;28;20479;-66
2022/05/06 00:49:29;;;;;;;8.60;4.83;;;;;;;8.76;76.01;101165.59;5102757;28;20882;-68
2022/05/06 00:51:57;;;;;;;12.17;5.90;;;;;;;8.81;76.32;101162.59;5103284;27;20958;-67
2022/05/06 00:54:24;;;;;;;8.40;5.57;;;;;;;8.64;76.24;101161.94;5100406;28;20479;-67
2022/05/06 00:56:51;;;;;;;7.13;5.07;;;;;;;8.60;76.51;101165.78;5097870;28;20847;-68
2022/05/06 00:59:18;;;;;;;9.50;6.20;;;;;;;8.62;76.75;101169.19;5104500;28;20458;-66
2022/05/06 01:01:45;;;;;;;9.07;5.30;;;;;;;8.63;76.52;101162.09;5103258;28;20589;-67
2022/05/06 01:04:11;;;;;;;8.00;5.97;;;;;;;8.57;76.07;101175.81;5104693;28;20882;-68
2022/05/06 01:06:39;;;;;;;7.97;5.53;;;;;;;8.47;76.70;101168.47;5103816;28;20466;-68
2022/05/06 01:09:07;;;;;;;6.93;5.90;;;;;;;8.60;76.57;101168.47;5087145;28;20486;-67
2022/05/06 01:11:34;;;;;;;9.87;5.50;;;;;;;8.57;76.58;101166.00;5095870;28;20506;-67
2022/05/06 01:14:00;;;;;;;8.30;5.30;;;;;;;8.62;76.30;101166.53;5103798;28;20494;-68
2022/05/06 01:16:33;;;;;;;6.20;5.50;;;;;;;8.74;76.50;101167.50;5103285;28;20947;-67
2022/05/06 01:18:59;;;;;;;6.20;5.50;;;;;;;8.47;76.61;101172.91;5103319;28;20462;-67
2022/05/06 01:21:28;;;;;;;7.17;5.10;;;;;;;8.51;76.93;101174.44;5103973;28;20502;-68
2022/05/06 01:23:56;;;;;;;9.47;6.23;;;;;;;8.48;76.98;101170.16;5104018;28;20459;-68
2022/05/06 01:26:22;;;;;;;8.10;6.50;;;;;;;8.38;76.99;101171.69;5103057;28;20959;-69
2022/05/06 01:28:50;;;;;;;7.83;5.70;;;;;;;8.44;77.03;101176.66;5094898;28;20475;-68
2022/05/06 01:31:21;;;;;;;7.13;5.70;;;;;;;8.45;77.04;101172.16;5103090;27;21069;-69
2022/05/06 01:33:54;;;;;;;9.43;6.40;;;;;;;8.39;77.06;101177.91;5096599;28;20590;-69
2022/05/06 01:36:23;;;;;;;7.87;6.20;;;;;;;8.38;77.04;101174.34;5092817;28;20478;-68
2022/05/06 01:38:52;;;;;;;8.03;6.33;;;;;;;8.29;77.25;101180.31;5103694;28;20462;-68
2022/05/06 01:41:22;;;;;;;7.17;6.07;;;;;;;8.37;77.21;101177.16;5103383;28;20481;-68
2022/05/06 01:43:53;;;;;;;9.57;6.30;;;;;;;8.37;77.20;101186.00;5102316;28;20482;-67
2022/05/06 01:46:21;;;;;;;7.80;5.30;;;;;;;8.27;77.19;101188.41;5096428;28;20508;-68
2022/05/06 01:48:48;;;;;;;6.20;4.97;;;;;;;8.20;77.07;101188.94;5101926;28;20444;-68
2022/05/06 01:51:16;;;;;;;8.37;5.70;;;;;;;8.22;77.11;101184.34;5102941;28;20494;-68
2022/05/06 01:53:43;;;;;;;6.03;5.40;;;;;;;8.09;77.37;101187.84;5103144;28;20514;-67
2022/05/06 01:56:10;;;;;;;6.63;5.67;;;;;;;7.95;77.83;101184.34;5102848;28;20533;-68
2022/05/06 01:58:38;;;;;;;7.97;5.70;;;;;;;7.95;78.23;101193.22;5103045;28;20481;-67
2022/05/06 02:01:05;;;;;;;7.50;5.97;;;;;;;7.81;78.36;101187.91;5102442;28;20529;-68
2022/05/06 02:06:16;;;;;;;7.73;5.73;;;;;;;7.81;78.36;101186.13;5102068;28;20842;-68
2022/05/06 02:08:43;;;;;;;6.10;5.43;;;;;;;7.79;78.21;101180.03;5103095;28;20519;-68
2022/05/06 02:11:11;;;;;;;9.70;5.73;;;;;;;7.78;78.21;101181.00;5101782;28;20509;-67
2022/05/06 02:13:39;;;;;;;9.20;5.90;;;;;;;7.82;78.62;101181.66;5102403;28;21313;-67
2022/05/06 02:16:07;;;;;;;7.10;6.00;;;;;;;7.69;78.73;101186.91;5102459;28;20474;-67
2022/05/06 02:18:34;;;;;;;7.97;6.17;;;;;;;7.58;78.91;101189.41;5103179;28;20763;-68
2022/05/06 02:21:01;;;;;;;8.43;5.97;;;;;;;7.53;79.16;101176.41;5102485;28;20490;-65
2022/05/06 02:23:28;;;;;;;9.23;6.10;;;;;;;7.53;79.43;101185.25;5102988;28;20436;-67
2022/05/06 02:25:55;;;;;;;8.87;6.53;;;;;;;7.62;79.37;101189.13;5102401;28;20567;-67
2022/05/06 02:28:21;;;;;;;11.70;6.50;;;;;;;7.57;79.12;101172.59;5102302;28;20474;-67
2022/05/06 02:33:34;;;;;;;11.33;6.10;;;;;;;7.50;79.39;101187.25;5102234;28;20535;-68
2022/05/06 02:36:02;;;;;;;7.50;5.67;;;;;;;7.50;79.99;101190.75;5100191;27;20546;-68
2022/05/06 02:38:29;;;;;;;9.00;6.40;;;;;;;7.53;79.95;101184.38;5098893;28;20443;-67
2022/05/06 02:40:56;;;;;;;7.10;6.17;;;;;;;7.49;80.00;101183.72;5097328;27;20501;-68
2022/05/06 02:43:22;;;;;;;8.77;6.33;;;;;;;7.55;79.64;101182.47;5089896;28;20523;-67
2022/05/06 02:45:50;;;;;;;8.27;6.73;;;;;;;7.57;79.66;101182.38;5091810;27;20561;-67
2022/05/06 02:48:18;;;;;;;8.70;6.47;;;;;;;7.52;80.02;101182.69;5075392;28;20563;-67
2022/05/06 02:50:44;;;;;;;9.53;6.27;;;;;;;7.54;79.96;101186.94;5087861;28;20471;-69
2022/05/06 02:53:11;;;;;;;7.30;6.10;;;;;;;7.52;79.69;101185.34;5102575;28;20491;-68
2022/05/06 02:55:39;;;;;;;7.40;5.97;;;;;;;7.47;79.71;101184.78;5101288;28;20491;-68
2022/05/06 02:58:06;;;;;;;9.03;5.77;;;;;;;7.46;79.65;101181.25;5101890;28;20450;-67
2022/05/06 03:00:32;;;;;;;10.10;5.97;;;;;;;7.45;79.65;101173.38;5101413;28;20463;-68
2022/05/06 03:03:00;;;;;;;8.50;6.23;;;;;;;7.53;79.47;101184.38;5091246;28;20511;-68
2022/05/06 03:05:27;;;;;;;8.83;6.60;;;;;;;7.39;79.61;101179.09;5097198;28;20470;-68
2022/05/06 03:07:54;;;;;;;6.90;5.67;;;;;;;7.37;79.90;101179.19;5101822;28;21207;-68
2022/05/06 03:10:20;;;;;;;13.63;6.60;;;;;;;7.31;79.81;101177.78;5100841;28;20494;-68
2022/05/06 03:12:48;;;;;;;9.13;6.00;;;;;;;7.29;79.81;101174.34;5101213;28;20455;-68
2022/05/06 03:15:15;;;;;;;9.10;6.57;;;;;;;7.28;79.84;101175.28;5101337;28;20493;-69
2022/05/06 03:17:41;;;;;;;12.33;5.93;;;;;;;7.26;80.00;101174.53;5099007;28;20436;-69
2022/05/06 03:20:09;;;;;;;7.47;6.00;;;;;;;7.38;79.81;101178.25;5082742;27;20797;-69
2022/05/06 03:22:41;;;;;;;8.53;6.60;;;;;;;7.40;79.59;101178.16;5096004;28;20437;-70
2022/05/06 03:25:09;;;;;;;7.40;6.10;;;;;;;7.21;79.85;101175.78;5082109;28;20436;-69
2022/05/06 03:30:20;;;;;;;7.33;5.67;;;;;;;7.15;80.02;101169.91;5099746;28;20434;-68
2022/05/06 03:32:46;;;;;;;6.97;5.57;;;;;;;7.29;79.67;101176.13;5101099;28;20439;-68
2022/05/06 03:35:15;;;;;;;8.57;6.00;;;;;;;7.27;79.85;101176.22;5096661;27;20562;-68
2022/05/06 03:37:42;;;;;;;6.80;5.90;;;;;;;7.06;80.02;101175.78;5086348;28;20482;-69
2022/05/06 03:40:10;;;;;;;7.53;6.10;;;;;;;7.05;80.34;101178.53;5089456;27;20447;-69
2022/05/06 03:42:36;;;;;;;6.77;5.63;;;;;;;7.05;80.50;101175.88;5061177;28;20487;-69
2022/05/06 03:45:03;;;;;;;8.60;6.50;;;;;;;7.06;80.56;101170.44;5071698;28;20465;-68
2022/05/06 03:47:30;;;;;;;8.03;7.00;;;;;;;7.09;80.39;101177.41;5100698;28;20495;-69
2022/05/06 03:52:39;;;;;;;10.80;6.87;;;;;;;7.30;80.57;101173.38;5089064;28;20474;-69
2022/05/06 03:55:06;;;;;;;9.03;7.33;;;;;;;7.30;80.72;101167.22;5081178;28;20483;-69
2022/05/06 03:57:33;;;;;;;8.30;7.23;;;;;;;7.33;80.47;101173.19;5075817;28;20467;-70
2022/05/06 04:00:00;;;;;;;7.60;5.80;;;;;;;7.54;80.07;101170.97;5080878;28;20497;-69
2022/05/06 04:02:26;;;;;;;9.37;7.80;;;;;;;7.79;79.41;101173.88;5079513;28;20480;-69
2022/05/06 04:04:53;;;;;;;7.77;6.80;;;;;;;8.14;78.52;101176.00;5079115;28;20448;-69
2022/05/06 04:07:20;;;;;;;10.33;7.80;;;;;;;8.43;76.86;101174.94;5068944;28;20487;-68
2022/05/06 04:09:48;;;;;;;8.70;6.47;;;;;;;8.93;74.75;101174.25;5061454;28;20440;-69
2022/05/06 04:12:15;;;;;;;9.30;7.10;;;;;;;9.32;72.10;101175.91;5061085;28;20491;-69
2022/05/06 04:14:42;;;;;;;8.47;7.13;;;;;;;9.87;70.40;101178.19;5060428;28;20481;-69
2022/05/06 04:17:08;;;;;;;7.67;6.43;;;;;;;10.38;68.09;101182.44;5060445;28;20488;-69
2022/05/06 04:19:35;;;;;;;9.53;7.17;;;;;;;10.82;66.31;101186.22;5060124;28;20518;-71
2022/05/06 04:24:50;;;;;;;8.60;7.07;;;;;;;11.76;62.52;101186.78;5060536;28;20431;-71
2022/05/06 04:27:16;;;;;;;6.77;6.07;;;;;;;11.98;60.71;101186.75;5061262;28;20499;-72
2022/05/06 04:29:43;;;;;;;5.80;5.20;;;;;;;12.28;59.39;101187.03;5058611;28;20452;-71
2022/05/06 04:32:10;;;;;;;9.00;5.60;;;;;;;12.71;57.97;101192.28;5065130;28;21518;-72
2022/05/06 04:34:37;;;;;;;6.43;5.70;;;;;;;12.89;56.99;101191.69;5068547;28;20487;-74
2022/05/06 04:37:05;;;;;;;5.43;4.60;;;;;;;12.76;57.39;101192.72;5064825;28;21103;-70
2022/05/06 04:39:32;;;;;;;7.10;5.33;;;;;;;12.95;56.97;101197.38;5049368;28;20514;-71
2022/05/06 04:42:00;;;;;;;5.80;5.30;;;;;;;12.44;58.26;101188.25;5063601;28;20487;-69
2022/05/06 04:44:27;;;;;;;9.57;5.57;;;;;;;11.62;59.79;101202.16;5063365;28;20445;-70
2022/05/06 04:46:53;;;;;;;9.00;5.33;;;;;;;10.78;63.15;101200.78;5077981;28;20479;-70
2022/05/06 04:49:20;;;;;;;7.53;5.27;;;;;;;10.92;63.41;101201.44;5084700;28;20455;-70
2022/05/06 04:51:47;;;;;;;10.20;5.60;;;;;;;10.68;64.11;101200.66;5084403;28;20510;-71
2022/05/06 04:54:13;;;;;;;7.37;5.67;;;;;;;10.39;65.95;101201.03;5084388;28;20507;-71
2022/05/06 04:56:40;;;;;;;7.70;5.17;;;;;;;10.44;65.94;101198.03;5077611;28;20480;-71
2022/05/06 04:59:08;;;;;;;7.83;5.60;;;;;;;10.73;65.46;101206.50;5083377;28;21002;-69
2022/05/06 05:01:35;;;;;;;14.43;6.60;;;;;;;10.76;64.79;101208.91;5082913;28;20479;-70
2022/05/06 05:04:02;;;;;;;8.33;6.40;;;;;;;11.02;64.94;101214.91;5084462;28;20463;-71
2022/05/06 05:06:28;;;;;;;8.53;6.60;;;;;;;12.49;60.94;101216.53;5083452;28;20486;-70
2022/05/06 05:08:55;;;;;;;8.73;6.00;;;;;;;14.00;55.67;101219.53;5082177;28;20447;-67
2022/05/06 05:11:22;;;;;;;6.43;5.77;;;;;;;14.98;52.03;101221.22;5082955;28;20502;-65
2022/05/06 05:13:49;;;;;;;6.60;5.70;;;;;;;15.62;49.87;101227.66;5082656;28;20491;-67
2022/05/06 05:16:17;;;;;;;7.83;5.80;;;;;;;15.47;50.88;101217.50;5082033;28;20847;-66
2022/05/06 05:18:44;;;;;;;5.93;4.97;;;;;;;16.12;49.94;101220.13;5083309;28;20444;-67
2022/05/06 05:21:11;;;;;;;7.20;5.50;;;;;;;16.33;48.69;101217.97;5082367;28;20555;-66
2022/05/06 05:23:37;;;;;;;6.70;5.00;;;;;;;15.71;50.75;101225.03;5082076;28;20506;-66
2022/05/06 05:26:04;;;;;;;9.70;5.67;;;;;;;16.70;48.64;101216.09;5082353;28;20471;-65
2022/05/06 05:28:31;;;;;;;8.60;5.30;;;;;;;17.36;46.32;101213.84;5081998;28;20480;-65
2022/05/06 05:30:57;;;;;;;7.87;5.00;;;;;;;17.73;45.39;101218.06;5078826;28;20496;-65
2022/05/06 05:33:26;;;;;;;5.83;5.33;;;;;;;16.97;47.66;101219.72;5060659;28;20480;-67
2022/05/06 05:35:53;;;;;;;5.47;5.00;;;;;;;18.76;43.06;101223.97;5067088;28;20492;-68
2022/05/06 05:38:19;;;;;;;11.07;5.00;;;;;;;17.80;48.11;101227.22;5080054;28;20525;-65
2022/05/06 05:40:46;;;;;;;8.07;5.80;;;;;;;17.58;45.75;101229.47;5081171;28;20484;-66
2022/05/06 05:48:19;;;;;;;5.83;5.30;;;;;;;19.10;42.30;101224.81;5080746;28;20498;-66
2022/05/06 05:48:46;;;;;;;7.20;5.43;;;;;;;18.38;44.10;101218.25;5081294;28;20447;-66
2022/05/06 05:51:13;;;;;;;6.53;5.93;;;;;;;19.51;41.09;101225.53;5081130;28;20476;-66
2022/05/06 05:53:39;;;;;;;6.40;5.03;;;;;;;19.46;41.21;101230.66;5081132;28;20485;-67
2022/05/06 05:56:06;;;;;;;8.13;5.70;;;;;;;19.19;41.71;101230.03;5081154;28;20499;-66
2022/05/06 05:58:34;;;;;;;8.13;6.10;;;;;;;20.16;39.54;101234.38;5080325;28;21314;-66
2022/05/06 06:01:01;;;;;;;6.90;5.57;;;;;;;20.27;39.45;101233.13;5080217;28;20467;-66
2022/05/06 06:03:28;;;;;;;13.90;6.00;;;;;;;20.15;39.92;101227.25;5081404;28;20432;-66
2022/05/06 06:06:06;;;;;;;8.20;5.10;;;;;;;19.53;42.27;101223.50;5080658;28;20500;-66
2022/05/06 06:08:33;;;;;;;5.67;5.17;;;;;;;19.42;42.14;101226.56;5080469;28;20470;-66
2022/05/06 06:11:01;;;;;;;10.23;6.43;;;;;;;20.62;40.00;101223.56;5080703;28;20486;-65
2022/05/06 06:13:28;;;;;;;8.73;5.93;;;;;;;20.58;39.46;101226.78;5080210;28;20459;-66
2022/05/06 06:15:55;;;;;;;6.93;6.23;;;;;;;20.43;40.14;101234.88;5079454;28;20483;-66
2022/05/06 06:18:26;;;;;;;8.40;6.63;;;;;;;21.61;37.93;101226.13;5080734;28;20531;-66
2022/05/06 06:20:53;;;;;;;7.83;7.03;;;;;;;21.44;37.61;101217.28;5075941;28;20599;-66
2022/05/06 06:23:21;;;;;;;7.83;6.87;;;;;;;21.20;38.29;101226.56;5077532;28;20440;-66
2022/05/06 06:25:48;;;;;;;7.80;6.70;;;;;;;21.57;37.90;101230.22;5079509;28;20505;-66
2022/05/06 06:28:15;;;;;;;10.90;7.90;;;;;;;21.84;37.22;101229.72;5067981;28;20464;-66
2022/05/06 06:30:42;;;;;;;8.77;7.10;;;;;;;23.03;34.76;101226.50;5079322;28;20489;-66
2022/05/06 06:33:09;;;;;;;12.67;7.23;;;;;;;22.02;37.14;101230.16;5071258;28;20529;-66
2022/05/06 06:35:35;;;;;;;9.00;6.30;;;;;;;22.83;35.76;101223.59;5056426;28;20493;-66
2022/05/06 06:38:02;;;;;;;6.93;5.90;;;;;;;25.02;31.63;101225.47;5039576;28;20437;-66
2022/05/06 06:40:32;;;;;;;8.00;5.67;;;;;;;22.21;36.64;101227.84;5040314;28;20472;-66
2022/05/06 06:43:01;;;;;;;7.87;6.10;;;;;;;21.87;37.43;101235.63;5040652;28;20446;-67
2022/05/06 06:45:28;;;;;;;7.53;6.70;;;;;;;22.05;37.73;101229.78;5038915;28;20509;-67
2022/05/06 06:47:55;;;;;;;9.50;6.53;;;;;;;23.82;34.19;101234.34;5060278;28;20456;-67
2022/05/06 06:50:23;;;;;;;7.90;6.40;;;;;;;24.05;33.37;101238.59;5061227;28;20580;-67
2022/05/06 06:52:50;;;;;;;7.13;5.70;;;;;;;23.42;34.59;101239.56;5061077;28;20981;-70
2022/05/06 06:55:17;;;;;;;9.40;7.47;;;;;;;23.03;35.21;101235.50;5060686;28;20484;-68
2022/05/06 06:57:45;;;;;;;9.90;7.13;;;;;;;23.77;33.66;101238.69;5059613;28;20483;-68
2022/05/06 07:00:12;;;;;;;11.40;7.43;;;;;;;26.76;28.33;101235.66;5060190;28;20459;-68
2022/05/06 07:02:40;;;;;;;12.73;8.87;;;;;;;23.94;30.71;101240.06;5060436;28;21063;-68
2022/05/06 07:05:07;;;;;;;7.57;6.83;;;;;;;24.81;30.38;101241.06;5060451;28;20441;-67
2022/05/06 07:13:03;;;;;;;8.93;7.70;;;;;;;24.73;31.79;101240.41;5060426;28;20474;-69
2022/05/06 07:15:31;;;;;;;10.10;6.20;;;;;;;25.93;29.81;101240.97;5059911;28;20861;-67
2022/05/06 07:17:58;;;;;;;7.03;6.30;;;;;;;25.53;30.98;101238.41;5060840;28;21039;-66
2022/05/06 07:20:25;;;;;;;9.67;7.53;;;;;;;26.91;26.56;101244.41;5063397;28;20444;-66
2022/05/06 07:22:52;;;;;;;8.33;6.17;;;;;;;24.57;31.75;101247.16;5060370;28;20441;-67
2022/05/06 07:25:19;;;;;;;9.90;7.90;;;;;;;24.61;27.57;101240.19;5060763;28;20445;-67
2022/05/06 07:27:45;;;;;;;10.33;6.90;;;;;;;26.47;24.97;101235.22;5060445;28;20448;-67
2022/05/06 07:30:14;;;;;;;9.80;7.07;;;;;;;25.35;26.64;101241.84;5059964;28;20535;-68
2022/05/06 07:32:40;;;;;;;9.23;7.17;;;;;;;25.25;27.06;101243.31;5061282;28;20455;-68
2022/05/06 07:35:08;;;;;;;11.37;7.23;;;;;;;25.47;26.66;101242.03;5061166;28;20910;-67
2022/05/06 07:37:35;;;;;;;7.30;6.40;;;;;;;28.22;23.11;101235.91;5080455;28;20526;-67
2022/05/06 07:40:03;;;;;;;9.03;6.27;;;;;;;28.22;22.94;101240.59;5080681;28;20509;-67
2022/05/06 07:42:31;;;;;;;8.17;7.30;;;;;;;27.33;24.71;101239.16;5079902;28;20483;-67
2022/05/06 07:44:58;;;;;;;10.23;7.13;;;;;;;26.00;25.71;101241.00;5079561;28;20495;-67
2022/05/06 07:47:27;;;;;;;13.40;7.63;;;;;;;26.64;25.39;101238.28;5080357;28;20484;-66
2022/05/06 07:49:54;;;;;;;8.60;7.03;;;;;;;26.70;24.53;101231.06;5081401;28;20990;-73
2022/05/06 07:52:20;;;;;;;9.33;7.37;;;;;;;25.92;27.22;101231.09;5079797;28;20930;-65
2022/05/06 07:54:47;;;;;;;10.70;8.00;;;;;;;27.88;24.64;101231.94;5080830;28;20458;-66
2022/05/06 07:57:13;;;;;;;5.67;5.07;;;;;;;28.70;22.19;101235.00;5079865;28;20468;-66
2022/05/06 07:59:40;;;;;;;7.00;4.77;;;;;;;28.70;21.77;101236.91;5080326;28;20503;-67
2022/05/06 08:04:53;;;;;;;5.60;3.50;;;;;;;27.96;22.13;101235.22;5080796;28;20482;-68
2022/05/06 08:07:20;;;;;;;6.83;4.00;;;;;;;29.29;20.29;101228.69;5079643;28;20784;-68
2022/05/06 08:09:46;;;;;;;6.70;5.10;;;;;;;26.69;22.39;101230.22;5080624;28;20452;-67
2022/05/06 08:12:13;;;;;;;6.97;4.30;;;;;;;28.78;20.64;101235.72;5079874;28;20505;-66
2022/05/06 08:14:40;;;;;;;4.77;4.00;;;;;;;27.38;21.59;101231.06;5079643;28;20447;-66
2022/05/06 08:17:07;;;;;;;6.30;5.00;;;;;;;26.44;23.85;101236.50;5056324;28;20481;-67
2022/05/06 08:19:34;;;;;;;6.97;4.50;;;;;;;28.13;21.55;101246.41;5060450;28;20464;-67
2022/05/06 08:22:03;;;;;;;12.70;5.80;;;;;;;28.53;21.07;101237.56;5072055;28;20486;-67
2022/05/06 08:24:29;;;;;;;9.00;5.37;;;;;;;27.40;21.90;101237.16;5079644;28;20447;-67
2022/05/06 08:26:56;;;;;;;7.80;5.00;;;;;;;26.25;24.00;101232.84;5080004;28;20482;-70
2022/05/06 08:29:23;;;;;;;7.90;6.20;;;;;;;26.34;23.43;101235.34;5079673;28;20475;-67
2022/05/06 08:31:51;;;;;;;9.00;5.50;;;;;;;28.23;22.14;101229.38;5080089;28;21031;-69
2022/05/06 08:34:18;;;;;;;9.00;5.20;;;;;;;27.12;22.90;101242.31;5080586;28;20420;-66
2022/05/06 08:36:45;;;;;;;6.73;5.40;;;;;;;28.39;21.38;101235.28;5079350;28;20476;-66
2022/05/06 08:39:13;;;;;;;9.30;6.03;;;;;;;27.07;23.21;101239.41;5080372;28;20448;-67
2022/05/06 08:41:40;;;;;;;10.90;6.43;;;;;;;27.17;22.63;101240.56;5079780;28;20493;-67
2022/05/06 08:52:26;;;;;;;10.77;6.57;;;;;;;27.43;22.85;101244.94;5078605;28;20513;-66
2022/05/06 08:54:54;;;;;;;7.93;5.30;;;;;;;28.84;21.24;101243.84;5080311;28;20429;-67
2022/05/06 08:57:21;;;;;;;9.73;6.30;;;;;;;28.97;21.47;101242.78;5078357;28;20525;-67
2022/05/06 08:59:52;;;;;;;7.80;6.03;;;;;;;28.77;21.70;101243.13;5078774;28;20621;-66
2022/05/06 09:02:19;;;;;;;11.93;5.90;;;;;;;29.43;20.76;101237.53;5082174;28;20530;-67
2022/05/06 09:04:46;;;;;;;7.47;6.27;;;;;;;28.00;21.46;101243.84;5093537;28;21022;-67
2022/05/06 09:07:19;;;;;;;7.50;6.27;;;;;;;27.41;23.87;101241.59;5079492;28;20471;-66
2022/05/06 09:10:11;;;;;;;9.13;6.23;;;;;;;26.23;24.49;101237.72;5081738;28;20455;-67
2022/05/06 09:12:45;;;;;;;8.73;6.73;;;;;;;28.56;21.52;101239.03;5066884;28;20497;-67
2022/05/06 09:17:58;;;;;;;8.80;6.17;;;;;;;28.34;22.24;101241.47;5083225;28;20994;-66
2022/05/06 09:20:26;;;;;;;8.70;6.60;;;;;;;26.77;23.45;101235.44;5080952;28;20597;-68
2022/05/06 09:22:53;;;;;;;7.90;6.23;;;;;;;28.18;22.49;101234.72;5083484;28;20440;-67
2022/05/06 09:25:39;;;;;;;10.53;6.47;;;;;;;29.73;21.08;101234.56;5083035;28;20517;-66
2022/05/06 09:28:07;;;;;;;9.90;7.17;;;;;;;26.92;24.04;101242.47;5082199;28;20456;-67
2022/05/06 09:30:34;;;;;;;8.70;6.63;;;;;;;27.67;22.27;101239.63;5098816;28;20493;-67
2022/05/06 09:33:01;;;;;;;8.33;6.80;;;;;;;27.26;22.51;101238.34;5083504;28;20451;-67
2022/05/06 09:35:30;;;;;;;7.90;7.10;;;;;;;28.38;20.90;101239.06;5089230;28;20497;-68
2022/05/06 09:37:57;;;;;;;8.07;6.73;;;;;;;28.73;21.81;101239.16;5091935;28;20460;-67
2022/05/06 09:40:29;;;;;;;8.70;6.13;;;;;;;29.64;20.51;101228.59;5082617;28;20451;-68
2022/05/06 09:43:01;;;;;;;8.90;6.53;;;;;;;28.11;23.26;101236.75;5098686;28;20591;-67
2022/05/06 09:45:30;;;;;;;6.93;6.23;;;;;;;29.15;21.52;101233.56;5089191;28;20477;-66
2022/05/06 09:47:58;;;;;;;7.20;6.50;;;;;;;29.02;21.12;101236.56;5091445;28;20448;-67
2022/05/06 09:50:32;;;;;;;7.73;6.23;;;;;;;29.87;21.41;101226.88;5096672;28;20451;-67
2022/05/06 09:53:00;;;;;;;8.13;6.83;;;;;;;28.06;22.56;101240.19;5086586;28;20439;-67
2022/05/06 09:55:28;;;;;;;7.73;6.30;;;;;;;27.58;23.40;101230.81;5089583;28;20547;-67
2022/05/06 09:57:56;;;;;;;8.83;6.43;;;;;;;25.45;24.89;101224.13;5092044;28;20507;-67
2022/05/06 10:00:25;;;;;;;15.97;7.17;;;;;;;27.68;23.95;101227.53;5087294;28;20448;-68
2022/05/06 10:02:51;;;;;;;7.63;6.27;;;;;;;28.02;22.97;101216.97;5099439;28;20486;-67
2022/05/06 10:05:18;;;;;;;7.77;6.90;;;;;;;27.00;23.29;101210.09;5081843;28;20561;-68
2022/05/06 10:07:46;;;;;;;8.77;6.07;;;;;;;28.62;23.06;101220.75;5081931;28;20539;-68
2022/05/06 10:10:18;;;;;;;9.40;6.50;;;;;;;29.67;21.04;101203.31;5095525;28;20462;-68
2022/05/06 10:12:52;;;;;;;11.13;6.40;;;;;;;28.02;24.14;101213.38;5100546;28;20451;-67
2022/05/06 10:15:21;;;;;;;8.83;6.00;;;;;;;27.82;22.96;101206.22;5081283;28;20486;-67
2022/05/06 10:17:55;;;;;;;10.87;6.33;;;;;;;29.03;21.96;101211.53;5082214;28;20460;-67
2022/05/06 10:20:59;;;;;;;7.67;6.03;;;;;;;29.35;21.33;101213.91;5095651;28;20492;-67
2022/05/06 10:23:44;;;;;;;7.40;6.60;;;;;;;27.67;23.22;101209.41;5069026;28;20440;-67
2022/05/06 10:26:10;;;;;;;7.90;6.47;;;;;;;27.26;23.09;101205.41;5081012;28;20504;-66
2022/05/06 10:34:34;;;;;;;10.47;6.13;;;;;;;27.04;23.20;101194.03;5081704;28;20887;-67
2022/05/06 10:37:02;;;;;;;7.23;6.10;;;;;;;27.17;23.63;101198.56;5081387;28;20486;-67
2022/05/06 10:39:30;;;;;;;6.13;5.63;;;;;;;27.20;23.88;101195.31;5081617;28;21269;-68
2022/05/06 10:42:05;;;;;;;8.90;6.37;;;;;;;26.33;24.42;101195.25;5091589;28;20473;-68
2022/05/06 10:44:33;;;;;;;10.43;7.10;;;;;;;28.18;21.85;101194.31;5085279;28;20621;-67
2022/05/06 10:46:59;;;;;;;9.30;6.13;;;;;;;28.29;22.57;101200.91;5080715;28;20480;-67
2022/05/06 10:49:50;;;;;;;8.60;6.00;;;;;;;29.58;21.42;101190.16;5077771;28;20601;-68
2022/05/06 10:52:52;;;;;;;6.03;5.47;;;;;;;29.21;21.45;101185.81;5080811;28;20471;-67
2022/05/06 10:55:21;;;;;;;8.80;6.57;;;;;;;27.59;22.96;101182.22;5079756;28;20490;-67
2022/05/06 10:58:06;;;;;;;7.57;5.90;;;;;;;27.17;23.82;101188.41;5067701;28;20459;-67
2022/05/06 11:00:37;;;;;;;8.70;6.13;;;;;;;28.35;22.62;101185.41;5080397;28;20568;-67
2022/05/06 11:03:05;;;;;;;6.77;5.37;;;;;;;28.09;22.50;101187.47;5080061;28;20600;-67
2022/05/06 11:05:33;;;;;;;6.00;5.40;;;;;;;27.82;23.84;101188.91;5079746;28;20472;-66
2022/05/06 11:08:02;;;;;;;7.00;5.40;;;;;;;29.84;20.92;101192.38;5080213;28;20478;-69
2022/05/06 11:10:31;;;;;;;6.87;5.63;;;;;;;29.18;22.82;101179.94;5079414;28;20985;-68
2022/05/06 11:12:58;;;;;;;6.80;5.70;;;;;;;28.67;21.84;101180.44;5080116;28;20478;-66
2022/05/06 11:15:28;;;;;;;7.10;5.17;;;;;;;29.69;23.51;101178.25;5079513;28;20432;-66
2022/05/06 11:17:57;;;;;;;9.73;7.07;;;;;;;26.61;24.47;101175.63;5090845;28;20455;-66
2022/05/06 11:20:26;;;;;;;7.70;6.23;;;;;;;26.37;26.15;101177.28;5099734;28;20519;-68
2022/05/06 11:23:00;;;;;;;8.90;5.53;;;;;;;26.01;25.78;101171.44;5085587;28;20489;-66
2022/05/06 11:25:29;;;;;;;8.83;6.00;;;;;;;26.05;24.86;101166.34;5078218;28;20460;-66
2022/05/06 11:27:57;;;;;;;7.30;5.73;;;;;;;25.68;25.92;101174.34;5079259;28;20488;-66
2022/05/06 11:30:25;;;;;;;10.00;5.90;;;;;;;25.00;26.09;101164.66;5079328;28;20455;-66
2022/05/06 11:32:54;;;;;;;11.00;6.93;;;;;;;25.82;24.15;101162.25;5070784;28;20850;-67
2022/05/06 11:35:33;;;;;;;5.97;5.37;;;;;;;27.35;24.42;101162.03;5059792;28;20444;-71
2022/05/06 11:38:02;;;;;;;7.73;6.17;;;;;;;27.29;23.58;101163.81;5059390;28;20473;-71
2022/05/06 11:40:34;;;;;;;7.60;5.13;;;;;;;25.72;26.78;101165.44;5062781;28;20452;-68
2022/05/06 11:43:20;;;;;;;8.77;6.70;;;;;;;26.61;23.86;101162.75;5069788;28;20475;-71
2022/05/06 11:48:34;;;;;;;10.77;5.97;;;;;;;23.92;27.88;101152.00;5079702;28;20466;-69
2022/05/06 11:51:03;;;;;;;6.20;5.50;;;;;;;23.76;29.07;101158.66;5074544;28;20468;-70
2022/05/06 11:53:32;;;;;;;10.43;6.00;;;;;;;24.05;28.77;101156.66;5060777;28;20509;-68
2022/05/06 11:56:02;;;;;;;9.23;5.90;;;;;;;24.68;27.37;101144.50;5066940;28;20471;-71
2022/05/06 11:58:29;;;;;;;11.00;5.83;;;;;;;24.13;27.98;101141.94;5079669;28;20989;-67
2022/05/06 12:00:56;;;;;;;9.53;6.30;;;;;;;25.48;27.35;101138.81;5080017;28;21246;-68
2022/05/06 12:03:24;;;;;;;10.73;6.47;;;;;;;25.39;27.06;101142.88;5080575;28;20493;-68
2022/05/06 12:06:04;;;;;;;6.10;4.13;;;;;;;24.70;26.88;101135.03;5080731;28;20480;-68
2022/05/06 12:08:34;;;;;;;4.03;3.07;;;;;;;24.08;26.57;101145.31;5080334;28;20452;-67
2022/05/06 12:11:03;;;;;;;9.27;4.23;;;;;;;23.52;28.22;101143.66;5079344;28;20475;-69
2022/05/06 12:13:40;;;;;;;5.00;4.47;;;;;;;24.83;26.21;101136.91;5079891;28;20459;-67
2022/05/06 12:16:09;;;;;;;6.70;5.43;;;;;;;25.12;25.94;101148.41;5080177;28;20513;-66